Time;durP1;ratioP1;P1;durP2;ratioP2;P2;SDS_P1;SDS_P2;PMS_P1;PMS_P2;Temp;Humidity;BMP_temperature;BMP_pressure;BME280_temperature;BME280_humidity;BME280_pressure;Samples;Min_cycle;Max_cycle;Signal;HPM_P1;HPM_P2
2022/09/02 00:00:50;;;;;;;383.40;177.13;;;14.20;1.00;;;;;;5068720;28;20178;-52
2022/09/02 00:03:16;;;;;;;414.13;192.17;;;14.00;1.00;;;;;;5068580;28;20650;-53
2022/09/02 00:05:42;;;;;;;417.37;190.20;;;;;;;;;;5070876;28;20313;-52
2022/09/02 00:08:09;;;;;;;467.07;214.33;;;14.00;1.00;;;;;;5063104;28;20317;-53
2022/09/02 00:10:42;;;;;;;421.07;194.07;;;13.90;1.00;;;;;;5071506;28;20324;-52
2022/09/02 00:13:10;;;;;;;416.53;193.93;;;13.90;1.00;;;;;;5065494;28;20233;-53
2022/09/02 00:15:36;;;;;;;431.33;200.00;;;;;;;;;;5069703;28;20203;-53
2022/09/02 00:18:02;;;;;;;393.10;183.57;;;13.90;1.00;;;;;;5074734;28;20185;-53
2022/09/02 00:20:29;;;;;;;384.77;180.43;;;13.90;1.00;;;;;;5075822;28;23463;-53
2022/09/02 00:22:55;;;;;;;362.03;170.93;;;14.10;1.00;;;;;;5071257;28;20942;-52
2022/09/02 00:25:22;;;;;;;360.80;170.57;;;13.70;1.00;;;;;;5074127;28;20218;-52
2022/09/02 00:27:48;;;;;;;396.30;184.77;;;;;;;;;;5069398;28;20178;-53
2022/09/02 00:30:14;;;;;;;420.90;197.10;;;;;;;;;;5079043;28;20178;-53
2022/09/02 00:32:40;;;;;;;406.70;187.50;;;;;;;;;;5070224;28;20485;-53
2022/09/02 00:35:07;;;;;;;433.00;194.00;;;14.00;1.00;;;;;;5062049;28;20224;-53
2022/09/02 00:37:33;;;;;;;417.77;194.03;;;;;;;;;;5069989;28;20378;-53
2022/09/02 00:39:59;;;;;;;417.47;191.80;;;;;;;;;;5065822;28;20786;-53
2022/09/02 00:42:25;;;;;;;409.63;189.87;;;13.90;1.00;;;;;;5068664;28;20213;-53
2022/09/02 00:44:52;;;;;;;382.30;177.77;;;13.90;1.00;;;;;;5070536;28;20214;-52
2022/09/02 00:47:18;;;;;;;414.87;193.27;;;;;;;;;;5075782;28;20256;-52
2022/09/02 00:49:49;;;;;;;364.23;171.47;;;13.80;1.00;;;;;;5079151;28;20706;-53
2022/09/02 00:52:19;;;;;;;416.73;192.10;;;13.80;1.00;;;;;;5071217;28;20214;-52
2022/09/02 00:55:01;;;;;;;419.30;195.53;;;14.00;1.00;;;;;;5065253;28;20209;-52
2022/09/02 00:57:32;;;;;;;424.43;194.93;;;13.70;1.00;;;;;;5068798;28;20206;-53
2022/09/02 01:00:07;;;;;;;390.37;181.13;;;13.70;1.00;;;;;;5076350;28;20242;-52
2022/09/02 01:02:36;;;;;;;408.33;187.57;;;13.60;1.00;;;;;;5072525;28;20342;-53
2022/09/02 01:05:05;;;;;;;388.73;178.03;;;13.70;1.00;;;;;;5080238;28;20217;-53
2022/09/02 01:07:33;;;;;;;400.37;184.77;;;13.60;1.00;;;;;;5077652;28;20248;-53
2022/09/02 01:10:00;;;;;;;395.33;182.00;;;13.50;1.00;;;;;;5064875;28;20230;-52
2022/09/02 01:12:28;;;;;;;409.07;189.67;;;13.50;1.00;;;;;;5067788;28;20208;-53
2022/09/02 01:14:55;;;;;;;368.07;171.13;;;;;;;;;;5070923;28;20338;-53
2022/09/02 01:17:21;;;;;;;392.60;181.03;;;;;;;;;;5067328;28;20218;-53
2022/09/02 01:19:50;;;;;;;390.03;181.43;;;13.50;1.00;;;;;;5071924;28;20221;-52
2022/09/02 01:22:27;;;;;;;410.77;189.53;;;13.50;1.00;;;;;;5075656;28;20206;-53
2022/09/02 01:24:55;;;;;;;418.83;192.23;;;13.60;1.00;;;;;;5070461;28;20221;-52
2022/09/02 01:27:22;;;;;;;405.83;185.43;;;13.50;1.00;;;;;;5071616;28;20618;-52
2022/09/02 01:29:57;;;;;;;354.50;165.43;;;13.60;1.00;;;;;;5080886;28;20238;-53
2022/09/02 01:32:25;;;;;;;416.23;190.33;;;13.40;1.00;;;;;;5067671;28;20268;-53
2022/09/02 01:34:51;;;;;;;393.70;181.37;;;;;;;;;;5070204;28;20690;-53
2022/09/02 01:37:17;;;;;;;441.93;202.67;;;13.30;20.20;;;;;;5067116;28;20240;-52
2022/09/02 01:39:44;;;;;;;377.90;177.10;;;;;;;;;;5076446;28;20188;-52
2022/09/02 01:42:10;;;;;;;403.97;187.57;;;;;;;;;;5071000;28;20178;-53
2022/09/02 01:44:42;;;;;;;371.73;175.43;;;;;;;;;;5072714;28;20257;-52
2022/09/02 01:47:09;;;;;;;405.07;185.33;;;;;;;;;;5073805;28;20210;-52
2022/09/02 01:49:34;;;;;;;384.10;177.53;;;13.40;31.40;;;;;;5071060;28;20630;-53
2022/09/02 01:52:00;;;;;;;395.27;183.23;;;;;;;;;;5075579;28;20479;-52
2022/09/02 01:54:25;;;;;;;418.33;192.30;;;13.30;1.00;;;;;;5065387;28;20212;-52
2022/09/02 01:56:51;;;;;;;456.33;204.47;;;;;;;;;;5062128;28;20224;-53
2022/09/02 01:59:19;;;;;;;423.53;193.90;;;;;;;;;;5073837;28;20267;-53
2022/09/02 02:01:45;;;;;;;360.03;166.27;;;;;;;;;;5076141;28;20695;-52
2022/09/02 02:04:12;;;;;;;390.13;184.70;;;13.20;8.00;;;;;;5069842;28;20213;-53
2022/09/02 02:06:42;;;;;;;395.80;184.47;;;13.10;27.30;;;;;;5072510;28;20277;-53
2022/09/02 02:09:09;;;;;;;364.60;167.70;;;12.90;47.00;;;;;;5078117;28;20499;-52
2022/09/02 02:11:35;;;;;;;365.33;168.70;;;;;;;;;;5065989;28;20255;-52
2022/09/02 02:14:01;;;;;;;403.73;185.67;;;;;;;;;;5074679;28;20689;-53
2022/09/02 02:16:27;;;;;;;374.50;171.30;;;;;;;;;;5072238;28;20221;-53
2022/09/02 02:18:53;;;;;;;384.50;173.83;;;;;;;;;;5072852;28;20224;-53
2022/09/02 02:21:19;;;;;;;347.70;161.70;;;13.00;96.50;;;;;;5067664;28;20187;-52
2022/09/02 02:23:44;;;;;;;343.70;163.73;;;12.80;74.20;;;;;;5081864;28;20242;-53
2022/09/02 02:26:10;;;;;;;385.03;179.47;;;;;;;;;;5072878;28;20202;-52
2022/09/02 02:28:36;;;;;;;469.30;217.60;;;12.80;68.30;;;;;;5055225;28;20347;-53
2022/09/02 02:31:02;;;;;;;379.93;174.40;;;;;;;;;;5065954;28;20210;-53
2022/09/02 02:33:28;;;;;;;338.90;161.27;;;12.40;69.00;;;;;;5063118;28;20266;-52
2022/09/02 02:35:54;;;;;;;361.07;164.87;;;12.80;68.40;;;;;;5074001;28;20566;-53
2022/09/02 02:38:20;;;;;;;377.87;175.23;;;12.80;71.10;;;;;;5067829;28;20214;-53
2022/09/02 02:40:46;;;;;;;413.00;192.10;;;12.90;62.00;;;;;;5063030;28;20249;-53
2022/09/02 02:43:12;;;;;;;388.83;179.53;;;;;;;;;;5055888;28;20232;-53
2022/09/02 02:45:38;;;;;;;399.43;189.40;;;12.80;60.20;;;;;;5066133;28;20408;-52
2022/09/02 02:48:04;;;;;;;436.50;199.93;;;;;;;;;;5061901;28;22579;-53
2022/09/02 02:50:30;;;;;;;402.97;188.10;;;;;;;;;;5064800;28;20320;-53
2022/09/02 02:52:55;;;;;;;346.60;163.60;;;13.10;25.20;;;;;;5072819;28;20594;-53
2022/09/02 02:55:22;;;;;;;376.40;175.90;;;13.30;59.60;;;;;;5061954;28;20220;-53
2022/09/02 02:57:49;;;;;;;382.80;177.87;;;13.20;4.20;;;;;;5061129;28;20676;-52
2022/09/02 03:00:27;;;;;;;371.33;175.27;;;13.30;35.60;;;;;;5069171;28;20183;-53
2022/09/02 03:03:00;;;;;;;436.30;199.57;;;;;;;;;;5067132;28;20352;-52
2022/09/02 03:05:27;;;;;;;395.27;179.93;;;;;;;;;;5066529;28;20224;-53
2022/09/02 03:07:53;;;;;;;360.00;169.67;;;;;;;;;;5066601;28;20740;-53
2022/09/02 03:10:19;;;;;;;399.57;189.70;;;;;;;;;;5074873;28;20207;-53
2022/09/02 03:12:46;;;;;;;360.03;173.57;;;13.30;39.80;;;;;;5075812;28;20199;-52
2022/09/02 03:15:14;;;;;;;358.47;167.43;;;13.40;15.60;;;;;;5073229;28;20203;-52
2022/09/02 03:17:40;;;;;;;395.17;182.37;;;;;;;;;;5074319;28;20218;-53
2022/09/02 03:20:06;;;;;;;375.80;167.57;;;;;;;;;;5067211;28;20213;-53
2022/09/02 03:22:32;;;;;;;377.13;173.37;;;13.30;49.80;;;;;;5066921;28;20218;-53
2022/09/02 03:24:58;;;;;;;341.17;159.77;;;13.20;53.30;;;;;;5079195;28;20229;-52
2022/09/02 03:27:23;;;;;;;387.77;182.33;;;;;;;;;;5066705;28;20686;-53
2022/09/02 03:29:49;;;;;;;388.13;178.83;;;13.30;67.50;;;;;;5068878;28;20252;-52
2022/09/02 03:32:14;;;;;;;336.60;174.50;;;13.10;59.80;;;;;;5086247;22;20584;-51
2022/09/02 03:34:41;;;;;;;335.60;178.23;;;;;;;;;;5063471;28;20318;-50
2022/09/02 03:37:07;;;;;;;357.43;186.70;;;13.20;40.10;;;;;;5066587;28;20214;-51
2022/09/02 03:39:33;;;;;;;345.40;187.33;;;13.30;65.00;;;;;;5068714;28;20269;-50
2022/09/02 03:41:59;;;;;;;352.40;188.70;;;;;;;;;;5069976;28;20185;-51
2022/09/02 03:44:24;;;;;;;349.80;182.33;;;;;;;;;;5065162;28;20691;-51
2022/09/02 03:46:50;;;;;;;339.97;184.33;;;13.50;74.90;;;;;;5053116;28;20285;-51
2022/09/02 03:49:15;;;;;;;369.07;197.67;;;13.40;66.90;;;;;;5062243;28;20214;-50
2022/09/02 03:51:41;;;;;;;347.55;182.70;;;13.50;51.10;;;;;;5072033;28;20618;-51
2022/09/02 03:54:09;;;;;;;353.57;185.83;;;13.40;41.10;;;;;;5065989;28;20238;-51
2022/09/02 03:56:35;;;;;;;356.73;185.53;;;13.40;53.30;;;;;;5066171;28;20566;-51
2022/09/02 03:59:01;;;;;;;335.63;180.00;;;;;;;;;;5071019;28;20283;-50
2022/09/02 04:01:27;;;;;;;337.03;179.97;;;13.30;90.60;;;;;;5068897;28;20253;-51
2022/09/02 04:03:53;;;;;;;357.87;189.90;;;;;;;;;;5060483;28;20977;-50
2022/09/02 04:06:20;;;;;;;387.97;203.03;;;13.50;92.70;;;;;;5065814;28;20174;-50
2022/09/02 04:08:48;;;;;;;336.50;180.80;;;13.30;94.40;;;;;;5071538;28;20213;-51
2022/09/02 04:11:17;;;;;;;314.83;168.17;;;13.20;92.50;;;;;;5072523;28;20214;-52
2022/09/02 04:13:44;;;;;;;373.90;200.70;;;11.90;91.10;;;;;;5061001;28;20539;-50
2022/09/02 04:16:13;;;;;;;348.50;185.27;;;13.30;63.20;;;;;;5063655;28;20704;-52
2022/09/02 04:18:40;;;;;;;362.27;192.33;;;13.40;90.30;;;;;;5065690;28;20201;-50
2022/09/02 04:21:05;;;;;;;368.20;196.57;;;13.50;90.10;;;;;;5069958;28;20182;-50
2022/09/02 04:23:31;;;;;;;390.63;214.20;;;13.50;87.60;;;;;;5070370;28;20213;-50
2022/09/02 04:25:57;;;;;;;374.57;200.13;;;;;;;;;;5068131;28;20267;-51
2022/09/02 04:28:23;;;;;;;382.20;202.53;;;13.30;71.90;;;;;;5070704;28;20778;-50
2022/09/02 04:30:49;;;;;;;342.57;182.47;;;;;;;;;;5075441;28;20304;-52
2022/09/02 04:33:16;;;;;;;367.93;196.70;;;13.60;22.40;;;;;;5071297;28;20359;-50
2022/09/02 04:35:44;;;;;;;365.03;195.60;;;13.70;53.60;;;;;;5081677;28;20249;-50
2022/09/02 04:38:10;;;;;;;329.07;174.33;;;13.50;66.80;;;;;;5074946;28;20216;-51
2022/09/02 04:40:40;;;;;;;349.17;184.70;;;13.50;28.20;;;;;;5074660;28;20661;-51
2022/09/02 04:43:06;;;;;;;348.93;181.17;;;13.40;39.20;;;;;;5077400;28;20225;-51
2022/09/02 04:45:32;;;;;;;347.67;186.40;;;;;;;;;;5078540;28;20440;-51
2022/09/02 04:47:57;;;;;;;354.60;193.30;;;13.70;34.80;;;;;;5073211;28;20271;-50
2022/09/02 04:50:23;;;;;;;354.17;187.40;;;;;;;;;;5070522;28;20250;-51
2022/09/02 04:52:49;;;;;;;330.60;175.60;;;;;;;;;;5079780;28;20210;-51
2022/09/02 04:55:15;;;;;;;360.17;187.93;;;13.60;52.50;;;;;;5075690;28;20219;-51
2022/09/02 04:57:41;;;;;;;365.20;202.97;;;13.70;13.30;;;;;;5074060;28;20376;-51
2022/09/02 05:00:08;;;;;;;358.33;187.93;;;13.80;61.50;;;;;;5073063;28;20187;-51
2022/09/02 05:02:34;;;;;;;332.57;174.77;;;;;;;;;;5074179;28;20249;-51
2022/09/02 05:05:00;;;;;;;323.63;169.07;;;13.70;14.40;;;;;;5076232;28;20384;-51
2022/09/02 05:07:25;;;;;;;338.77;177.13;;;13.70;57.30;;;;;;5074381;28;20211;-51
2022/09/02 05:09:56;;;;;;;349.37;183.97;;;13.70;57.30;;;;;;5068184;28;20272;-53
2022/09/02 05:12:23;;;;;;;382.67;206.40;;;13.60;48.90;;;;;;5070821;28;20175;-53
2022/09/02 05:14:48;;;;;;;346.03;185.17;;;13.80;46.40;;;;;;5072842;28;20219;-52
2022/09/02 05:17:14;;;;;;;376.80;201.90;;;13.80;44.50;;;;;;5069255;28;20218;-52
2022/09/02 05:19:40;;;;;;;376.83;195.50;;;13.90;30.40;;;;;;5046940;28;21116;-53
2022/09/02 05:22:06;;;;;;;418.40;211.50;;;;;;;;;;5063769;28;20210;-53
2022/09/02 05:24:31;;;;;;;391.23;203.57;;;13.80;21.70;;;;;;5058513;28;20202;-52
2022/09/02 05:26:57;;;;;;;370.20;193.43;;;;;;;;;;5068992;28;20663;-52
2022/09/02 05:29:23;;;;;;;389.98;207.82;;;13.90;12.70;;;;;;5065522;28;20218;-53
2022/09/02 05:31:48;;;;;;;349.23;178.27;;;14.00;1.00;;;;;;5076496;28;20316;-52
2022/09/02 05:34:15;;;;;;;393.83;207.25;;;14.10;1.00;;;;;;5069131;28;20278;-53
2022/09/02 05:36:41;;;;;;;374.60;199.10;;;13.50;11.30;;;;;;5064062;28;20457;-51
2022/09/02 05:39:06;;;;;;;396.00;206.60;;;14.30;1.00;;;;;;5060470;28;20286;-54
2022/09/02 05:41:32;;;;;;;396.35;204.90;;;;;;;;;;5065790;28;20309;-52
2022/09/02 05:44:00;;;;;;;402.65;210.93;;;14.10;1.00;;;;;;5061429;28;20245;-52
2022/09/02 05:46:26;;;;;;;390.77;208.63;;;;;;;;;;5067673;28;20681;-51
2022/09/02 05:49:06;;;;;;;401.40;210.60;;;14.40;1.00;;;;;;5066980;28;20298;-52
2022/09/02 05:51:53;;;;;;;383.40;205.35;;;14.40;1.00;;;;;;5070641;28;20716;-52
2022/09/02 05:54:22;;;;;;;404.10;212.87;;;14.40;1.00;;;;;;5068134;28;20224;-52
2022/09/02 05:56:51;;;;;;;365.63;194.17;;;14.40;1.00;;;;;;5064048;28;20313;-52
2022/09/02 05:59:19;;;;;;;388.87;201.67;;;;;;;;;;5071076;28;20306;-52
2022/09/02 06:01:45;;;;;;;468.27;229.43;;;;;;;;;;5048492;28;20230;-54
2022/09/02 06:04:11;;;;;;;379.43;189.30;;;;;;;;;;5058286;28;20304;-53
2022/09/02 06:06:37;;;;;;;457.60;227.23;;;14.40;45.60;;;;;;5061121;28;20190;-52
2022/09/02 06:09:08;;;;;;;435.27;214.15;;;14.40;54.60;;;;;;5063607;28;20306;-52
2022/09/02 06:11:38;;;;;;;418.27;207.33;;;14.30;7.20;;;;;;5061713;28;20214;-53
2022/09/02 06:14:05;;;;;;;447.20;218.13;;;;;;;;;;5064237;28;20317;-53
2022/09/02 06:16:31;;;;;;;389.17;205.53;;;;;;;;;;5051689;28;20217;-51
2022/09/02 06:18:56;;;;;;;434.13;223.77;;;14.70;46.10;;;;;;5044335;28;20222;-53
2022/09/02 06:21:22;;;;;;;361.43;193.47;;;;;;;;;;5064024;28;20186;-51
2022/09/02 06:23:48;;;;;;;372.15;195.38;;;;;;;;;;5070389;28;20276;-51
2022/09/02 06:26:15;;;;;;;408.07;212.23;;;14.40;1.00;;;;;;5066971;28;21146;-52
2022/09/02 06:28:41;;;;;;;426.65;213.20;;;;;;;;;;5060153;28;20686;-52
2022/09/02 06:31:15;;;;;;;410.30;211.50;;;14.50;1.00;;;;;;5066741;28;22783;-53
2022/09/02 06:33:43;;;;;;;376.27;195.60;;;14.50;1.00;;;;;;5075108;28;20297;-53
2022/09/02 06:36:11;;;;;;;400.20;204.57;;;14.60;1.00;;;;;;5072905;28;20171;-53
2022/09/02 06:38:39;;;;;;;394.77;200.30;;;14.60;1.00;;;;;;5070889;28;20593;-51
2022/09/02 06:41:05;;;;;;;440.90;216.17;;;;;;;;;;5069067;28;20210;-52
2022/09/02 06:43:30;;;;;;;408.97;205.67;;;14.70;1.00;;;;;;5065907;28;20634;-50
2022/09/02 06:45:56;;;;;;;363.53;185.17;;;;;;;;;;5067527;28;20231;-50
2022/09/02 06:48:22;;;;;;;390.67;195.50;;;;;;;;;;5073327;28;20186;-54
2022/09/02 06:50:48;;;;;;;389.10;197.03;;;;;;;;;;5074340;28;20242;-52
2022/09/02 06:53:16;;;;;;;397.73;200.60;;;15.20;1.00;;;;;;5069843;28;20225;-51
2022/09/02 06:55:43;;;;;;;430.17;220.55;;;15.10;1.00;;;;;;5071939;28;20227;-51
2022/09/02 06:58:09;;;;;;;375.20;201.95;;;;;;;;;;5069185;28;20211;-53
2022/09/02 07:00:36;;;;;;;391.60;211.63;;;15.40;1.00;;;;;;5065734;28;20605;-52
2022/09/02 07:05:47;;;;;;;401.52;213.32;;;;;;;;;;5047735;28;20353;-53
2022/09/02 07:08:13;;;;;;;381.13;206.38;;;15.80;1.00;;;;;;5043567;28;20313;-50
2022/09/02 07:10:39;;;;;;;445.13;238.30;;;15.90;1.00;;;;;;5044925;28;20215;-50
2022/09/02 07:13:06;;;;;;;406.60;211.35;;;15.70;1.00;;;;;;5045274;28;20281;-52
2022/09/02 07:15:33;;;;;;;401.73;220.93;;;16.10;1.00;;;;;;5041285;28;20691;-51
2022/09/02 07:17:59;;;;;;;428.07;232.90;;;15.70;99.90;;;;;;5040018;28;20244;-51
2022/09/02 07:20:25;;;;;;;378.05;209.75;;;;;;;;;;5045609;28;20313;-53
2022/09/02 07:22:50;;;;;;;394.50;216.95;;;;;;;;;;5047254;28;20215;-50
2022/09/02 07:25:17;;;;;;;434.42;232.88;;;15.90;1.00;;;;;;5036466;28;20225;-50
2022/09/02 07:27:43;;;;;;;502.25;266.83;;;15.90;99.90;;;;;;5036769;28;20398;-51
2022/09/02 07:30:11;;;;;;;410.80;224.20;;;16.10;99.90;;;;;;5041469;28;20602;-55
2022/09/02 07:32:38;;;;;;;465.73;252.45;;;16.40;99.90;;;;;;5040585;28;20249;-50
2022/09/02 07:35:05;;;;;;;426.95;224.93;;;16.30;99.90;;;;;;5040370;28;20280;-53
2022/09/02 07:37:31;;;;;;;411.67;223.85;;;;;;;;;;5040849;28;20208;-53
2022/09/02 07:39:57;;;;;;;397.48;222.20;;;;;;;;;;5042066;28;20218;-53
2022/09/02 07:42:23;;;;;;;388.17;217.00;;;;;;;;;;5038587;28;20354;-54
2022/09/02 07:44:49;;;;;;;394.45;221.70;;;16.60;1.00;;;;;;5043838;28;20229;-53
2022/09/02 07:47:15;;;;;;;469.17;262.08;;;;;;;;;;5036515;28;20210;-51
2022/09/02 07:49:41;;;;;;;456.85;242.82;;;16.40;1.00;;;;;;5032091;28;20219;-51
2022/09/02 07:52:07;;;;;;;425.50;219.70;;;;;;;;;;5034449;28;21298;-53
2022/09/02 07:54:32;;;;;;;457.70;233.43;;;;;;;;;;5038791;28;20219;-51
2022/09/02 07:56:58;;;;;;;500.13;258.27;;;;;;;;;;5040048;28;23721;-51
2022/09/02 07:59:25;;;;;;;449.60;248.00;;;;;;;;;;5042958;28;20524;-51
2022/09/02 08:01:51;;;;;;;444.75;246.88;;;17.00;1.00;;;;;;5044142;28;20633;-52
2022/09/02 08:04:20;;;;;;;441.48;246.43;;;17.00;1.00;;;;;;5052863;28;20226;-52
2022/09/02 08:06:46;;;;;;;450.38;242.93;;;;;;;;;;5060883;28;20283;-51
2022/09/02 08:09:12;;;;;;;441.33;245.02;;;17.10;1.00;;;;;;5067058;28;20303;-51
2022/09/02 08:11:39;;;;;;;452.83;247.27;;;17.20;1.00;;;;;;5061119;28;20310;-51
2022/09/02 08:14:10;;;;;;;441.15;236.40;;;17.30;65.10;;;;;;5041575;28;20714;-52
2022/09/02 08:16:37;;;;;;;406.25;223.70;;;17.30;1.00;;;;;;5047052;28;20309;-51
2022/09/02 08:19:03;;;;;;;521.58;281.15;;;;;;;;;;5052168;28;20302;-52
2022/09/02 08:21:29;;;;;;;413.80;227.77;;;17.70;1.00;;;;;;5066516;28;20175;-52
2022/09/02 08:23:56;;;;;;;421.98;228.30;;;17.90;1.00;;;;;;5062071;28;20526;-52
2022/09/02 08:26:22;;;;;;;395.35;214.80;;;;;;;;;;5067871;28;20301;-53
2022/09/02 08:28:48;;;;;;;402.00;211.53;;;18.30;99.90;;;;;;5060431;28;20674;-51
2022/09/02 08:31:13;;;;;;;512.90;262.88;;;18.10;99.90;;;;;;5048347;28;24367;-52
2022/09/02 08:33:39;;;;;;;455.83;249.65;;;18.30;1.00;;;;;;5056710;28;20209;-51
2022/09/02 08:36:10;;;;;;;413.73;218.73;;;18.30;34.00;;;;;;5062275;28;20320;-52
2022/09/02 08:38:36;;;;;;;420.25;230.43;;;18.30;48.60;;;;;;5067030;28;20218;-52
2022/09/02 08:41:10;;;;;;;411.15;220.80;;;18.30;99.90;;;;;;5068870;28;20211;-53
2022/09/02 08:43:42;;;;;;;391.30;209.27;;;18.40;99.90;;;;;;5072945;28;20217;-52
2022/09/02 08:46:11;;;;;;;414.70;225.43;;;18.40;1.00;;;;;;5078586;28;20309;-51
2022/09/02 08:48:54;;;;;;;403.40;215.90;;;18.70;99.90;;;;;;5075133;28;20226;-53
2022/09/02 08:51:31;;;;;;;433.35;236.52;;;18.50;99.90;;;;;;5068607;28;20293;-51
2022/09/02 08:54:19;;;;;;;409.80;222.13;;;18.60;61.00;;;;;;5075124;28;20573;-53
2022/09/02 08:56:47;;;;;;;413.52;229.75;;;;;;;;;;5071257;28;20275;-52
2022/09/02 08:59:14;;;;;;;404.10;225.52;;;18.80;99.90;;;;;;5073318;28;20305;-53
2022/09/02 09:02:20;;;;;;;412.00;232.02;;;18.80;1.00;;;;;;5077071;28;20701;-52
2022/09/02 09:05:29;;;;;;;426.95;240.38;;;18.80;1.00;;;;;;5011221;28;20720;-52
2022/09/02 09:08:06;;;;;;;394.25;212.30;;;18.80;1.00;;;;;;5070853;28;20210;-52
2022/09/02 09:10:57;;;;;;;396.67;220.57;;;19.10;1.00;;;;;;5078757;28;20313;-53
2022/09/02 09:13:23;;;;;;;392.52;211.55;;;19.10;1.00;;;;;;5074471;28;20614;-53
2022/09/02 09:16:15;;;;;;;408.05;220.32;;;19.10;1.00;;;;;;5077100;28;20237;-52
2022/09/02 09:18:53;;;;;;;433.60;235.98;;;19.20;1.00;;;;;;5063826;28;20682;-52
2022/09/02 09:21:18;;;;;;;399.98;210.95;;;19.30;1.00;;;;;;5075375;28;20227;-52
2022/09/02 09:23:45;;;;;;;409.20;223.13;;;19.40;1.00;;;;;;5069374;28;20294;-52
2022/09/02 09:26:33;;;;;;;412.60;223.95;;;19.50;99.90;;;;;;5075295;28;20215;-53
2022/09/02 09:29:03;;;;;;;414.75;225.15;;;19.50;99.90;;;;;;5071485;28;20332;-52
2022/09/02 09:31:31;;;;;;;396.30;219.70;;;19.50;99.90;;;;;;5073550;28;20218;-51
2022/09/02 09:34:01;;;;;;;435.92;222.82;;;19.40;99.90;;;;;;5077660;22;20222;-51
2022/09/02 09:36:47;;;;;;;395.00;201.85;;;19.30;1.00;;;;;;5077090;28;20178;-51
2022/09/02 09:39:16;;;;;;;371.67;192.13;;;19.30;1.00;;;;;;5076678;28;20612;-51
2022/09/02 09:41:42;;;;;;;368.50;190.55;;;19.50;1.00;;;;;;5074100;28;20554;-51
2022/09/02 09:44:08;;;;;;;377.52;198.35;;;;;;;;;;5074681;28;20218;-51
2022/09/02 09:46:34;;;;;;;395.48;210.80;;;19.50;1.00;;;;;;5076825;28;20680;-53
2022/09/02 09:48:59;;;;;;;395.42;213.88;;;19.70;1.00;;;;;;5073494;28;20268;-51
2022/09/02 09:51:25;;;;;;;371.20;195.23;;;19.70;99.90;;;;;;5076952;28;20190;-51
2022/09/02 09:53:52;;;;;;;368.35;196.18;;;19.90;99.90;;;;;;5077219;28;20370;-51
2022/09/02 09:56:26;;;;;;;399.02;210.85;;;19.90;1.00;;;;;;5073484;28;20217;-51
2022/09/02 09:58:51;;;;;;;376.08;205.38;;;;;;;;;;5078071;28;20214;-51
2022/09/02 10:01:23;;;;;;;408.23;217.75;;;20.20;99.90;;;;;;5074376;28;20555;-54
2022/09/02 10:04:01;;;;;;;378.40;213.07;;;20.00;99.90;;;;;;5066835;28;20228;-51
2022/09/02 10:06:31;;;;;;;425.63;233.18;;;20.10;99.90;;;;;;5070176;28;20190;-51
2022/09/02 10:08:59;;;;;;;454.52;241.40;;;20.10;99.90;;;;;;5068250;28;20202;-52
2022/09/02 10:11:38;;;;;;;452.05;249.70;;;20.00;99.90;;;;;;5069445;28;20206;-54
2022/09/02 10:14:10;;;;;;;459.73;242.32;;;20.30;99.90;;;;;;5069800;28;20635;-51
2022/09/02 10:16:35;;;;;;;416.95;224.90;;;20.30;99.90;;;;;;5068293;28;20213;-51
2022/09/02 10:19:08;;;;;;;417.02;232.00;;;20.20;99.90;;;;;;5065757;28;20206;-51
2022/09/02 10:22:04;;;;;;;420.60;232.93;;;20.60;99.90;;;;;;5068868;28;20588;-52
2022/09/02 10:24:59;;;;;;;422.50;229.05;;;20.70;99.90;;;;;;5069800;28;20297;-51
2022/09/02 10:27:59;;;;;;;358.35;196.02;;;21.30;99.90;;;;;;5070526;28;20202;-51
2022/09/02 10:30:25;;;;;;;389.83;211.70;;;;;;;;;;5073032;28;20318;-51
2022/09/02 10:33:03;;;;;;;450.60;259.83;;;21.70;99.90;;;;;;5068479;28;20308;-51
2022/09/02 10:35:39;;;;;;;445.90;255.93;;;21.30;32.00;;;;;;5069800;28;20205;-53
2022/09/02 10:38:11;;;;;;;421.95;237.13;;;21.10;49.80;;;;;;5064765;28;20229;-53
2022/09/02 10:40:45;;;;;;;409.00;221.85;;;21.10;46.00;;;;;;5052815;28;20218;-55
2022/09/02 10:43:31;;;;;;;460.00;248.93;;;21.00;42.00;;;;;;5062398;28;20297;-54
2022/09/02 10:45:59;;;;;;;415.27;232.50;;;20.80;99.90;;;;;;5068513;28;20229;-53
2022/09/02 10:48:47;;;;;;;405.27;229.63;;;21.10;99.90;;;;;;5067021;28;20177;-53
2022/09/02 10:51:49;;;;;;;415.02;244.57;;;21.20;99.90;;;;;;5058395;28;20218;-53
2022/09/02 10:54:36;;;;;;;431.23;252.93;;;21.40;99.90;;;;;;5056610;28;20218;-52
2022/09/02 10:57:27;;;;;;;406.55;238.07;;;21.60;4.30;;;;;;5071568;28;20742;-53
2022/09/02 11:00:18;;;;;;;381.30;221.93;;;22.00;99.90;;;;;;5059725;28;20229;-55
2022/09/02 11:02:55;;;;;;;444.55;258.35;;;22.10;99.90;;;;;;5060880;28;20704;-53
2022/09/02 11:05:27;;;;;;;427.20;250.43;;;22.20;1.00;;;;;;5068631;28;20217;-53
2022/09/02 11:08:13;;;;;;;460.88;271.58;;;22.20;99.90;;;;;;5052607;28;20237;-53
2022/09/02 11:11:10;;;;;;;414.17;242.95;;;22.10;1.00;;;;;;5061824;28;20202;-54
2022/09/02 11:13:46;;;;;;;460.88;260.83;;;21.00;1.00;;;;;;5059339;28;20254;-54
2022/09/02 11:16:21;;;;;;;404.35;230.77;;;22.30;99.90;;;;;;5063270;28;20555;-52
2022/09/02 11:18:59;;;;;;;426.27;237.90;;;22.20;1.00;;;;;;5061880;28;20491;-52
2022/09/02 11:21:51;;;;;;;492.58;272.05;;;22.30;1.00;;;;;;5061692;28;20205;-53
2022/09/02 11:24:38;;;;;;;392.23;219.88;;;22.50;1.00;;;;;;5071472;28;20206;-54
2022/09/02 11:27:22;;;;;;;421.00;234.70;;;22.60;1.00;;;;;;5058046;28;20388;-53
2022/09/02 11:30:05;;;;;;;401.60;233.27;;;23.00;1.00;;;;;;5060608;28;20214;-53
2022/09/02 11:32:31;;;;;;;373.33;216.88;;;;;;;;;;5068574;28;20220;-53
2022/09/02 11:35:00;;;;;;;386.02;231.02;;;23.20;1.00;;;;;;5071840;28;20599;-53
2022/09/02 11:37:40;;;;;;;417.15;249.80;;;23.40;1.00;;;;;;5064449;28;20289;-53
2022/09/02 11:40:12;;;;;;;444.58;255.85;;;23.10;1.00;;;;;;5066719;28;20505;-54
2022/09/02 11:42:46;;;;;;;424.60;250.85;;;23.20;1.00;;;;;;5054557;28;20192;-54
2022/09/02 11:45:32;;;;;;;396.77;239.40;;;23.50;1.00;;;;;;5064072;28;20210;-54
2022/09/02 11:48:38;;;;;;;451.52;274.13;;;23.70;1.00;;;;;;5057524;28;20194;-54
2022/09/02 11:51:22;;;;;;;501.45;270.52;;;23.90;99.90;;;;;;5052595;28;20214;-54
2022/09/02 11:53:48;;;;;;;394.08;241.32;;;23.60;1.00;;;;;;5064810;28;20780;-52
2022/09/02 11:56:23;;;;;;;424.88;256.38;;;23.70;99.90;;;;;;5051824;28;20203;-50
2022/09/02 11:58:51;;;;;;;421.17;249.93;;;23.70;1.00;;;;;;5060405;28;20217;-54
2022/09/02 12:01:46;;;;;;;414.45;252.18;;;24.00;1.00;;;;;;5061109;28;20218;-52
2022/09/02 12:04:11;;;;;;;432.92;262.02;;;24.10;99.90;;;;;;5064174;28;20345;-52
2022/09/02 12:06:58;;;;;;;378.92;233.52;;;23.90;1.00;;;;;;5065652;28;20188;-53
2022/09/02 12:09:48;;;;;;;454.67;271.83;;;23.60;1.00;;;;;;5072584;28;20229;-52
2022/09/02 12:12:35;;;;;;;417.48;249.27;;;23.50;1.00;;;;;;5058993;28;20226;-52
2022/09/02 12:15:04;;;;;;;388.60;229.90;;;21.70;1.00;;;;;;5062038;28;20257;-52
2022/09/02 12:17:39;;;;;;;390.52;236.02;;;23.90;1.00;;;;;;5063416;28;20213;-52
2022/09/02 12:20:07;;;;;;;500.63;271.48;;;24.00;1.00;;;;;;5066612;28;20213;-53
2022/09/02 12:22:38;;;;;;;449.60;251.50;;;23.90;99.90;;;;;;5062346;28;20277;-53
2022/09/02 12:25:23;;;;;;;397.63;236.20;;;24.00;1.00;;;;;;5060685;28;20229;-53
2022/09/02 12:27:49;;;;;;;353.55;216.57;;;;;;;;;;5073403;28;20351;-53
2022/09/02 12:30:53;;;;;;;373.05;225.68;;;24.50;1.00;;;;;;5072938;28;20183;-52
2022/09/02 12:33:29;;;;;;;377.60;227.50;;;24.40;99.90;;;;;;5071370;28;20381;-53
2022/09/02 12:35:57;;;;;;;382.77;234.63;;;24.30;1.00;;;;;;5074676;28;20198;-53
2022/09/02 12:38:27;;;;;;;418.73;251.88;;;24.10;1.00;;;;;;5069617;28;20557;-53
2022/09/02 12:40:54;;;;;;;412.77;248.00;;;24.20;1.00;;;;;;5073303;28;20213;-53
2022/09/02 12:43:40;;;;;;;390.02;240.48;;;23.70;99.90;;;;;;5073163;28;20214;-53
2022/09/02 12:46:16;;;;;;;413.85;250.65;;;23.40;1.00;;;;;;5075356;28;20225;-53
2022/09/02 12:48:48;;;;;;;372.48;232.95;;;23.30;99.90;;;;;;5070544;28;20191;-53
2022/09/02 12:51:52;;;;;;;443.75;265.30;;;23.30;1.00;;;;;;5067926;28;20226;-53
2022/09/02 12:54:37;;;;;;;416.65;249.90;;;22.90;99.90;;;;;;5068078;28;20221;-53
2022/09/02 12:57:07;;;;;;;462.40;262.20;;;22.80;1.00;;;;;;5059205;28;20206;-53